sensor_id;sensor_type;location;lat;lon;timestamp;P1;durP1;ratioP1;P2;durP2;ratioP2
18983;SDS011;9626;52.552;13.436;2024-01-06T00:02:01;33.80;;;20.67;;
18983;SDS011;9626;52.552;13.436;2024-01-06T00:04:28;39.60;;;21.73;;
18983;SDS011;9626;52.552;13.436;2024-01-06T00:06:54;36.47;;;20.77;;
18983;SDS011;9626;52.552;13.436;2024-01-06T00:09:20;43.23;;;22.20;;
18983;SDS011;9626;52.552;13.436;2024-01-06T00:11:46;39.30;;;21.17;;
18983;SDS011;9626;52.552;13.436;2024-01-06T00:14:12;39.37;;;22.03;;
18983;SDS011;9626;52.552;13.436;2024-01-06T00:16:38;37.77;;;20.93;;
18983;SDS011;9626;52.552;13.436;2024-01-06T00:19:04;37.40;;;20.63;;
18983;SDS011;9626;52.552;13.436;2024-01-06T00:21:30;33.43;;;20.23;;
18983;SDS011;9626;52.552;13.436;2024-01-06T00:23:56;37.67;;;21.73;;
18983;SDS011;9626;52.552;13.436;2024-01-06T00:26:22;35.60;;;20.87;;
18983;SDS011;9626;52.552;13.436;2024-01-06T00:28:49;39.60;;;20.37;;
18983;SDS011;9626;52.552;13.436;2024-01-06T00:31:15;34.20;;;21.50;;
18983;SDS011;9626;52.552;13.436;2024-01-06T00:33:42;39.73;;;21.57;;
18983;SDS011;9626;52.552;13.436;2024-01-06T00:36:09;40.60;;;21.17;;
18983;SDS011;9626;52.552;13.436;2024-01-06T00:38:35;34.30;;;20.83;;
18983;SDS011;9626;52.552;13.436;2024-01-06T00:41:01;37.90;;;20.90;;
18983;SDS011;9626;52.552;13.436;2024-01-06T00:43:27;34.77;;;20.13;;
18983;SDS011;9626;52.552;13.436;2024-01-06T00:45:53;36.63;;;20.53;;
18983;SDS011;9626;52.552;13.436;2024-01-06T00:48:20;37.53;;;20.97;;
18983;SDS011;9626;52.552;13.436;2024-01-06T00:50:46;34.47;;;19.70;;
18983;SDS011;9626;52.552;13.436;2024-01-06T00:53:12;38.50;;;20.57;;
18983;SDS011;9626;52.552;13.436;2024-01-06T00:55:38;37.73;;;20.93;;
18983;SDS011;9626;52.552;13.436;2024-01-06T00:58:05;37.20;;;19.63;;
18983;SDS011;9626;52.552;13.436;2024-01-06T01:00:43;35.27;;;20.10;;
18983;SDS011;9626;52.552;13.436;2024-01-06T01:03:09;31.77;;;19.00;;
18983;SDS011;9626;52.552;13.436;2024-01-06T01:05:35;37.77;;;20.23;;
18983;SDS011;9626;52.552;13.436;2024-01-06T01:08:01;36.17;;;20.27;;
18983;SDS011;9626;52.552;13.436;2024-01-06T01:10:27;33.50;;;18.67;;
18983;SDS011;9626;52.552;13.436;2024-01-06T01:12:53;35.93;;;19.73;;
18983;SDS011;9626;52.552;13.436;2024-01-06T01:15:20;38.50;;;20.83;;
18983;SDS011;9626;52.552;13.436;2024-01-06T01:17:46;34.67;;;20.97;;
18983;SDS011;9626;52.552;13.436;2024-01-06T01:20:12;32.47;;;19.20;;
18983;SDS011;9626;52.552;13.436;2024-01-06T01:22:38;31.87;;;18.70;;
18983;SDS011;9626;52.552;13.436;2024-01-06T01:25:04;35.43;;;19.00;;
18983;SDS011;9626;52.552;13.436;2024-01-06T01:27:35;32.60;;;19.20;;
18983;SDS011;9626;52.552;13.436;2024-01-06T01:30:02;39.00;;;20.23;;
18983;SDS011;9626;52.552;13.436;2024-01-06T01:32:28;33.50;;;18.27;;
18983;SDS011;9626;52.552;13.436;2024-01-06T01:34:54;33.93;;;19.33;;
18983;SDS011;9626;52.552;13.436;2024-01-06T01:37:21;33.30;;;19.30;;
18983;SDS011;9626;52.552;13.436;2024-01-06T01:39:47;34.50;;;19.43;;
18983;SDS011;9626;52.552;13.436;2024-01-06T01:42:13;32.33;;;18.27;;
18983;SDS011;9626;52.552;13.436;2024-01-06T01:44:39;35.20;;;18.93;;
18983;SDS011;9626;52.552;13.436;2024-01-06T01:47:05;31.03;;;19.07;;
18983;SDS011;9626;52.552;13.436;2024-01-06T01:49:32;37.43;;;19.63;;
18983;SDS011;9626;52.552;13.436;2024-01-06T01:51:58;38.40;;;19.83;;
18983;SDS011;9626;52.552;13.436;2024-01-06T01:54:25;33.80;;;19.10;;
18983;SDS011;9626;52.552;13.436;2024-01-06T01:56:52;33.90;;;19.33;;
18983;SDS011;9626;52.552;13.436;2024-01-06T01:59:19;36.40;;;19.27;;
18983;SDS011;9626;52.552;13.436;2024-01-06T02:01:45;32.63;;;18.93;;
18983;SDS011;9626;52.552;13.436;2024-01-06T02:04:12;31.13;;;19.30;;
18983;SDS011;9626;52.552;13.436;2024-01-06T02:06:38;34.10;;;19.20;;
18983;SDS011;9626;52.552;13.436;2024-01-06T02:09:04;34.10;;;18.57;;
18983;SDS011;9626;52.552;13.436;2024-01-06T02:11:31;34.57;;;19.50;;
18983;SDS011;9626;52.552;13.436;2024-01-06T02:13:57;32.80;;;17.93;;
18983;SDS011;9626;52.552;13.436;2024-01-06T02:16:23;33.40;;;19.00;;
18983;SDS011;9626;52.552;13.436;2024-01-06T02:18:49;34.53;;;19.07;;
18983;SDS011;9626;52.552;13.436;2024-01-06T02:21:15;34.97;;;19.00;;
18983;SDS011;9626;52.552;13.436;2024-01-06T02:23:43;30.97;;;17.17;;
18983;SDS011;9626;52.552;13.436;2024-01-06T02:26:09;36.27;;;19.83;;
18983;SDS011;9626;52.552;13.436;2024-01-06T02:28:36;30.17;;;17.50;;
18983;SDS011;9626;52.552;13.436;2024-01-06T02:31:02;34.07;;;19.53;;
18983;SDS011;9626;52.552;13.436;2024-01-06T02:33:28;34.17;;;18.43;;
18983;SDS011;9626;52.552;13.436;2024-01-06T02:35:54;33.70;;;18.70;;
18983;SDS011;9626;52.552;13.436;2024-01-06T02:38:20;31.73;;;18.40;;
18983;SDS011;9626;52.552;13.436;2024-01-06T02:40:46;34.53;;;19.00;;
18983;SDS011;9626;52.552;13.436;2024-01-06T02:43:12;34.60;;;19.93;;
18983;SDS011;9626;52.552;13.436;2024-01-06T02:45:38;37.40;;;19.53;;
18983;SDS011;9626;52.552;13.436;2024-01-06T02:48:13;37.13;;;19.60;;
18983;SDS011;9626;52.552;13.436;2024-01-06T02:50:39;35.87;;;19.30;;
18983;SDS011;9626;52.552;13.436;2024-01-06T02:53:05;36.47;;;19.07;;
18983;SDS011;9626;52.552;13.436;2024-01-06T02:55:32;33.43;;;19.27;;
18983;SDS011;9626;52.552;13.436;2024-01-06T02:57:58;35.67;;;18.97;;
18983;SDS011;9626;52.552;13.436;2024-01-06T03:00:24;30.17;;;17.97;;
18983;SDS011;9626;52.552;13.436;2024-01-06T03:02:51;38.20;;;19.27;;
18983;SDS011;9626;52.552;13.436;2024-01-06T03:05:17;35.73;;;19.10;;
18983;SDS011;9626;52.552;13.436;2024-01-06T03:07:43;35.47;;;20.00;;
18983;SDS011;9626;52.552;13.436;2024-01-06T03:10:10;35.57;;;19.90;;
18983;SDS011;9626;52.552;13.436;2024-01-06T03:12:39;35.97;;;20.07;;
18983;SDS011;9626;52.552;13.436;2024-01-06T03:15:05;34.90;;;20.77;;
18983;SDS011;9626;52.552;13.436;2024-01-06T03:17:32;36.10;;;19.07;;
18983;SDS011;9626;52.552;13.436;2024-01-06T03:19:58;37.20;;;19.30;;
18983;SDS011;9626;52.552;13.436;2024-01-06T03:22:24;36.93;;;20.77;;
18983;SDS011;9626;52.552;13.436;2024-01-06T03:24:50;37.20;;;19.87;;
18983;SDS011;9626;52.552;13.436;2024-01-06T03:27:16;34.73;;;19.27;;
18983;SDS011;9626;52.552;13.436;2024-01-06T03:29:42;38.83;;;19.50;;
18983;SDS011;9626;52.552;13.436;2024-01-06T03:32:08;37.73;;;19.57;;
18983;SDS011;9626;52.552;13.436;2024-01-06T03:34:34;33.57;;;19.00;;
18983;SDS011;9626;52.552;13.436;2024-01-06T03:37:00;34.37;;;18.57;;
18983;SDS011;9626;52.552;13.436;2024-01-06T03:39:26;36.90;;;19.57;;
18983;SDS011;9626;52.552;13.436;2024-01-06T03:41:52;35.90;;;18.80;;
18983;SDS011;9626;52.552;13.436;2024-01-06T03:44:18;36.97;;;19.90;;
18983;SDS011;9626;52.552;13.436;2024-01-06T03:46:44;32.90;;;19.10;;
18983;SDS011;9626;52.552;13.436;2024-01-06T03:49:10;35.43;;;19.93;;
18983;SDS011;9626;52.552;13.436;2024-01-06T03:51:36;35.37;;;19.03;;
18983;SDS011;9626;52.552;13.436;2024-01-06T03:54:02;35.73;;;19.13;;
18983;SDS011;9626;52.552;13.436;2024-01-06T03:56:28;37.97;;;19.97;;
18983;SDS011;9626;52.552;13.436;2024-01-06T03:59:00;34.57;;;20.43;;
18983;SDS011;9626;52.552;13.436;2024-01-06T04:01:26;39.40;;;20.97;;
18983;SDS011;9626;52.552;13.436;2024-01-06T04:03:52;36.37;;;18.90;;
18983;SDS011;9626;52.552;13.436;2024-01-06T04:06:18;36.07;;;20.70;;
18983;SDS011;9626;52.552;13.436;2024-01-06T04:08:44;40.53;;;20.50;;
18983;SDS011;9626;52.552;13.436;2024-01-06T04:11:10;38.13;;;19.13;;
18983;SDS011;9626;52.552;13.436;2024-01-06T04:13:36;34.17;;;19.53;;
18983;SDS011;9626;52.552;13.436;2024-01-06T04:16:02;37.33;;;19.77;;
18983;SDS011;9626;52.552;13.436;2024-01-06T04:18:31;38.43;;;19.67;;
18983;SDS011;9626;52.552;13.436;2024-01-06T04:20:57;40.57;;;19.53;;
18983;SDS011;9626;52.552;13.436;2024-01-06T04:23:23;36.90;;;20.70;;
18983;SDS011;9626;52.552;13.436;2024-01-06T04:25:51;33.93;;;19.40;;
18983;SDS011;9626;52.552;13.436;2024-01-06T04:28:18;39.87;;;20.33;;
18983;SDS011;9626;52.552;13.436;2024-01-06T04:30:44;35.93;;;19.60;;
18983;SDS011;9626;52.552;13.436;2024-01-06T04:33:10;35.90;;;19.87;;
18983;SDS011;9626;52.552;13.436;2024-01-06T04:35:36;34.07;;;19.87;;
18983;SDS011;9626;52.552;13.436;2024-01-06T04:38:02;39.70;;;21.23;;
18983;SDS011;9626;52.552;13.436;2024-01-06T04:40:28;40.27;;;20.87;;
18983;SDS011;9626;52.552;13.436;2024-01-06T04:42:54;40.07;;;20.33;;
18983;SDS011;9626;52.552;13.436;2024-01-06T04:45:20;35.23;;;20.97;;
18983;SDS011;9626;52.552;13.436;2024-01-06T04:47:49;42.70;;;20.83;;
18983;SDS011;9626;52.552;13.436;2024-01-06T04:50:16;37.33;;;20.57;;
18983;SDS011;9626;52.552;13.436;2024-01-06T04:52:42;38.70;;;20.50;;
18983;SDS011;9626;52.552;13.436;2024-01-06T04:55:09;39.90;;;21.27;;
18983;SDS011;9626;52.552;13.436;2024-01-06T04:57:36;42.87;;;21.73;;
18983;SDS011;9626;52.552;13.436;2024-01-06T05:00:03;41.70;;;21.10;;
18983;SDS011;9626;52.552;13.436;2024-01-06T05:02:29;40.53;;;21.10;;
18983;SDS011;9626;52.552;13.436;2024-01-06T05:04:56;40.50;;;20.23;;
18983;SDS011;9626;52.552;13.436;2024-01-06T05:07:22;38.10;;;21.67;;
18983;SDS011;9626;52.552;13.436;2024-01-06T05:09:48;41.90;;;21.93;;
18983;SDS011;9626;52.552;13.436;2024-01-06T05:12:14;43.37;;;20.93;;
18983;SDS011;9626;52.552;13.436;2024-01-06T05:14:40;45.00;;;21.43;;
18983;SDS011;9626;52.552;13.436;2024-01-06T05:17:06;40.17;;;21.30;;
18983;SDS011;9626;52.552;13.436;2024-01-06T05:19:32;39.13;;;22.03;;
18983;SDS011;9626;52.552;13.436;2024-01-06T05:21:58;40.83;;;22.40;;
18983;SDS011;9626;52.552;13.436;2024-01-06T05:24:24;38.27;;;21.57;;
18983;SDS011;9626;52.552;13.436;2024-01-06T05:26:50;39.93;;;21.00;;
18983;SDS011;9626;52.552;13.436;2024-01-06T05:29:16;38.90;;;20.97;;
18983;SDS011;9626;52.552;13.436;2024-01-06T05:31:43;40.03;;;22.23;;
18983;SDS011;9626;52.552;13.436;2024-01-06T05:34:09;42.73;;;22.47;;
18983;SDS011;9626;52.552;13.436;2024-01-06T05:36:35;44.80;;;22.80;;
18983;SDS011;9626;52.552;13.436;2024-01-06T05:39:01;44.53;;;22.27;;
18983;SDS011;9626;52.552;13.436;2024-01-06T05:41:36;42.17;;;22.10;;
18983;SDS011;9626;52.552;13.436;2024-01-06T05:44:05;42.73;;;21.77;;
18983;SDS011;9626;52.552;13.436;2024-01-06T05:46:34;41.60;;;21.37;;
18983;SDS011;9626;52.552;13.436;2024-01-06T05:49:00;43.83;;;21.93;;
18983;SDS011;9626;52.552;13.436;2024-01-06T05:51:26;42.77;;;22.60;;
18983;SDS011;9626;52.552;13.436;2024-01-06T05:53:52;43.57;;;22.37;;
18983;SDS011;9626;52.552;13.436;2024-01-06T05:56:25;41.53;;;21.60;;
18983;SDS011;9626;52.552;13.436;2024-01-06T05:58:51;37.97;;;20.67;;
18983;SDS011;9626;52.552;13.436;2024-01-06T06:01:20;42.70;;;20.80;;
18983;SDS011;9626;52.552;13.436;2024-01-06T06:03:46;42.20;;;21.60;;
18983;SDS011;9626;52.552;13.436;2024-01-06T06:06:13;44.07;;;21.47;;
18983;SDS011;9626;52.552;13.436;2024-01-06T06:08:40;42.60;;;21.43;;
18983;SDS011;9626;52.552;13.436;2024-01-06T06:11:08;38.60;;;20.97;;
18983;SDS011;9626;52.552;13.436;2024-01-06T06:13:39;43.30;;;20.77;;
18983;SDS011;9626;52.552;13.436;2024-01-06T06:16:06;39.90;;;20.83;;
18983;SDS011;9626;52.552;13.436;2024-01-06T06:18:34;40.77;;;20.23;;
18983;SDS011;9626;52.552;13.436;2024-01-06T06:21:01;41.17;;;20.90;;
18983;SDS011;9626;52.552;13.436;2024-01-06T06:23:32;37.53;;;20.10;;
18983;SDS011;9626;52.552;13.436;2024-01-06T06:25:58;40.47;;;21.27;;
18983;SDS011;9626;52.552;13.436;2024-01-06T06:28:25;43.27;;;20.50;;
18983;SDS011;9626;52.552;13.436;2024-01-06T06:30:52;43.33;;;20.83;;
18983;SDS011;9626;52.552;13.436;2024-01-06T06:33:18;42.57;;;21.40;;
18983;SDS011;9626;52.552;13.436;2024-01-06T06:35:44;41.23;;;20.10;;
18983;SDS011;9626;52.552;13.436;2024-01-06T06:38:10;49.77;;;21.50;;
18983;SDS011;9626;52.552;13.436;2024-01-06T06:40:36;40.07;;;20.90;;
18983;SDS011;9626;52.552;13.436;2024-01-06T06:43:02;38.00;;;19.63;;
18983;SDS011;9626;52.552;13.436;2024-01-06T06:45:28;45.43;;;20.37;;
18983;SDS011;9626;52.552;13.436;2024-01-06T06:47:54;42.83;;;21.27;;
18983;SDS011;9626;52.552;13.436;2024-01-06T06:50:20;35.37;;;19.03;;
18983;SDS011;9626;52.552;13.436;2024-01-06T06:52:46;40.33;;;19.43;;
18983;SDS011;9626;52.552;13.436;2024-01-06T06:55:12;39.30;;;18.83;;
18983;SDS011;9626;52.552;13.436;2024-01-06T06:57:38;43.80;;;21.53;;
18983;SDS011;9626;52.552;13.436;2024-01-06T07:00:05;38.60;;;20.87;;
18983;SDS011;9626;52.552;13.436;2024-01-06T07:02:33;40.40;;;20.77;;
18983;SDS011;9626;52.552;13.436;2024-01-06T07:04:59;43.17;;;22.13;;
18983;SDS011;9626;52.552;13.436;2024-01-06T07:07:25;44.67;;;20.27;;
18983;SDS011;9626;52.552;13.436;2024-01-06T07:09:51;42.37;;;20.70;;
18983;SDS011;9626;52.552;13.436;2024-01-06T07:12:25;44.33;;;21.97;;
18983;SDS011;9626;52.552;13.436;2024-01-06T07:14:52;42.57;;;21.03;;
18983;SDS011;9626;52.552;13.436;2024-01-06T07:17:19;44.63;;;20.87;;
18983;SDS011;9626;52.552;13.436;2024-01-06T07:19:45;41.50;;;21.37;;
18983;SDS011;9626;52.552;13.436;2024-01-06T07:22:11;44.40;;;21.40;;
18983;SDS011;9626;52.552;13.436;2024-01-06T07:24:37;45.27;;;21.50;;
18983;SDS011;9626;52.552;13.436;2024-01-06T07:27:03;48.43;;;22.87;;
18983;SDS011;9626;52.552;13.436;2024-01-06T07:29:29;41.80;;;20.37;;
18983;SDS011;9626;52.552;13.436;2024-01-06T07:31:57;47.33;;;20.97;;
18983;SDS011;9626;52.552;13.436;2024-01-06T07:34:23;43.57;;;21.63;;
18983;SDS011;9626;52.552;13.436;2024-01-06T07:36:50;45.43;;;21.70;;
18983;SDS011;9626;52.552;13.436;2024-01-06T07:39:16;41.57;;;23.53;;
18983;SDS011;9626;52.552;13.436;2024-01-06T07:41:42;42.83;;;22.03;;
18983;SDS011;9626;52.552;13.436;2024-01-06T07:44:08;46.93;;;22.90;;
18983;SDS011;9626;52.552;13.436;2024-01-06T07:46:35;45.23;;;21.60;;
18983;SDS011;9626;52.552;13.436;2024-01-06T07:49:02;45.73;;;22.07;;
18983;SDS011;9626;52.552;13.436;2024-01-06T07:51:30;41.23;;;22.10;;
18983;SDS011;9626;52.552;13.436;2024-01-06T07:53:56;43.27;;;22.37;;
18983;SDS011;9626;52.552;13.436;2024-01-06T07:56:23;46.47;;;22.50;;
18983;SDS011;9626;52.552;13.436;2024-01-06T07:58:50;48.13;;;22.23;;
18983;SDS011;9626;52.552;13.436;2024-01-06T08:01:16;45.50;;;23.47;;
18983;SDS011;9626;52.552;13.436;2024-01-06T08:03:42;49.23;;;22.90;;
18983;SDS011;9626;52.552;13.436;2024-01-06T08:06:08;40.57;;;21.37;;
18983;SDS011;9626;52.552;13.436;2024-01-06T08:08:34;41.47;;;22.47;;
18983;SDS011;9626;52.552;13.436;2024-01-06T08:11:01;45.30;;;22.97;;
18983;SDS011;9626;52.552;13.436;2024-01-06T08:13:27;48.10;;;22.17;;
18983;SDS011;9626;52.552;13.436;2024-01-06T08:15:53;41.77;;;22.10;;
18983;SDS011;9626;52.552;13.436;2024-01-06T08:18:20;44.87;;;22.57;;
18983;SDS011;9626;52.552;13.436;2024-01-06T08:20:47;42.40;;;21.53;;
18983;SDS011;9626;52.552;13.436;2024-01-06T08:23:16;47.40;;;21.73;;
18983;SDS011;9626;52.552;13.436;2024-01-06T08:25:44;49.27;;;21.83;;
18983;SDS011;9626;52.552;13.436;2024-01-06T08:28:11;42.37;;;21.10;;
18983;SDS011;9626;52.552;13.436;2024-01-06T08:30:44;44.93;;;21.93;;
18983;SDS011;9626;52.552;13.436;2024-01-06T08:33:10;45.50;;;22.10;;
18983;SDS011;9626;52.552;13.436;2024-01-06T08:35:36;44.60;;;22.20;;
18983;SDS011;9626;52.552;13.436;2024-01-06T08:38:06;46.60;;;21.73;;
18983;SDS011;9626;52.552;13.436;2024-01-06T08:40:33;45.90;;;23.10;;
18983;SDS011;9626;52.552;13.436;2024-01-06T08:42:59;40.47;;;22.00;;
18983;SDS011;9626;52.552;13.436;2024-01-06T08:45:25;44.60;;;21.83;;
18983;SDS011;9626;52.552;13.436;2024-01-06T08:47:51;43.30;;;21.17;;
18983;SDS011;9626;52.552;13.436;2024-01-06T08:50:18;43.90;;;23.47;;
18983;SDS011;9626;52.552;13.436;2024-01-06T08:52:44;44.60;;;21.90;;
18983;SDS011;9626;52.552;13.436;2024-01-06T08:55:10;43.37;;;21.47;;
18983;SDS011;9626;52.552;13.436;2024-01-06T08:57:36;40.77;;;20.60;;
18983;SDS011;9626;52.552;13.436;2024-01-06T09:00:03;46.13;;;22.07;;
18983;SDS011;9626;52.552;13.436;2024-01-06T09:02:31;44.83;;;21.47;;
18983;SDS011;9626;52.552;13.436;2024-01-06T09:04:57;43.23;;;20.67;;
18983;SDS011;9626;52.552;13.436;2024-01-06T09:07:23;52.97;;;23.53;;
18983;SDS011;9626;52.552;13.436;2024-01-06T09:09:49;43.03;;;22.50;;
18983;SDS011;9626;52.552;13.436;2024-01-06T09:12:17;45.07;;;22.83;;
18983;SDS011;9626;52.552;13.436;2024-01-06T09:14:43;42.93;;;22.10;;
18983;SDS011;9626;52.552;13.436;2024-01-06T09:17:09;43.30;;;22.07;;
18983;SDS011;9626;52.552;13.436;2024-01-06T09:19:35;45.30;;;23.23;;
18983;SDS011;9626;52.552;13.436;2024-01-06T09:22:01;39.13;;;21.93;;
18983;SDS011;9626;52.552;13.436;2024-01-06T09:24:27;42.70;;;22.00;;
18983;SDS011;9626;52.552;13.436;2024-01-06T09:26:53;42.13;;;22.57;;
18983;SDS011;9626;52.552;13.436;2024-01-06T09:29:19;41.90;;;21.40;;
18983;SDS011;9626;52.552;13.436;2024-01-06T09:31:45;43.90;;;22.53;;
18983;SDS011;9626;52.552;13.436;2024-01-06T09:34:11;44.17;;;21.77;;
18983;SDS011;9626;52.552;13.436;2024-01-06T09:36:38;40.77;;;20.90;;
18983;SDS011;9626;52.552;13.436;2024-01-06T09:39:05;44.87;;;22.93;;
18983;SDS011;9626;52.552;13.436;2024-01-06T09:41:33;43.10;;;21.47;;
18983;SDS011;9626;52.552;13.436;2024-01-06T09:44:00;46.10;;;27.20;;
18983;SDS011;9626;52.552;13.436;2024-01-06T09:46:27;39.90;;;21.53;;
18983;SDS011;9626;52.552;13.436;2024-01-06T09:48:57;46.53;;;21.50;;
18983;SDS011;9626;52.552;13.436;2024-01-06T09:51:24;36.63;;;20.50;;
18983;SDS011;9626;52.552;13.436;2024-01-06T09:53:58;42.30;;;22.33;;
18983;SDS011;9626;52.552;13.436;2024-01-06T09:56:25;37.70;;;20.77;;
18983;SDS011;9626;52.552;13.436;2024-01-06T09:58:52;37.93;;;20.67;;
18983;SDS011;9626;52.552;13.436;2024-01-06T10:01:18;41.27;;;21.93;;
18983;SDS011;9626;52.552;13.436;2024-01-06T10:03:44;41.33;;;20.13;;
18983;SDS011;9626;52.552;13.436;2024-01-06T10:06:14;37.87;;;21.33;;
18983;SDS011;9626;52.552;13.436;2024-01-06T10:08:44;35.27;;;20.67;;
18983;SDS011;9626;52.552;13.436;2024-01-06T10:11:13;43.23;;;21.47;;
18983;SDS011;9626;52.552;13.436;2024-01-06T10:13:39;39.77;;;20.57;;
18983;SDS011;9626;52.552;13.436;2024-01-06T10:16:05;37.60;;;20.60;;
18983;SDS011;9626;52.552;13.436;2024-01-06T10:18:32;37.90;;;21.07;;
18983;SDS011;9626;52.552;13.436;2024-01-06T10:20:58;38.70;;;23.33;;
18983;SDS011;9626;52.552;13.436;2024-01-06T10:23:26;36.07;;;20.00;;
18983;SDS011;9626;52.552;13.436;2024-01-06T10:25:54;41.93;;;20.77;;
18983;SDS011;9626;52.552;13.436;2024-01-06T10:28:20;39.50;;;21.13;;
18983;SDS011;9626;52.552;13.436;2024-01-06T10:30:51;38.60;;;21.20;;
18983;SDS011;9626;52.552;13.436;2024-01-06T10:33:19;38.90;;;20.53;;
18983;SDS011;9626;52.552;13.436;2024-01-06T10:35:46;36.10;;;19.87;;
18983;SDS011;9626;52.552;13.436;2024-01-06T10:38:13;37.67;;;20.03;;
18983;SDS011;9626;52.552;13.436;2024-01-06T10:40:56;36.47;;;24.70;;
18983;SDS011;9626;52.552;13.436;2024-01-06T10:43:28;39.13;;;25.37;;
18983;SDS011;9626;52.552;13.436;2024-01-06T10:45:58;31.50;;;18.37;;
18983;SDS011;9626;52.552;13.436;2024-01-06T10:48:25;33.43;;;19.20;;
18983;SDS011;9626;52.552;13.436;2024-01-06T10:50:52;36.73;;;19.83;;
18983;SDS011;9626;52.552;13.436;2024-01-06T10:53:20;33.90;;;20.30;;
18983;SDS011;9626;52.552;13.436;2024-01-06T10:55:49;35.93;;;19.07;;
18983;SDS011;9626;52.552;13.436;2024-01-06T10:58:17;32.73;;;18.97;;
18983;SDS011;9626;52.552;13.436;2024-01-06T11:00:43;33.43;;;19.17;;
18983;SDS011;9626;52.552;13.436;2024-01-06T11:03:10;36.27;;;18.73;;
18983;SDS011;9626;52.552;13.436;2024-01-06T11:05:36;33.70;;;18.97;;
18983;SDS011;9626;52.552;13.436;2024-01-06T11:08:03;36.20;;;19.40;;
18983;SDS011;9626;52.552;13.436;2024-01-06T11:10:30;34.70;;;19.80;;
18983;SDS011;9626;52.552;13.436;2024-01-06T11:15:45;33.17;;;18.50;;
18983;SDS011;9626;52.552;13.436;2024-01-06T11:18:31;36.33;;;18.23;;
18983;SDS011;9626;52.552;13.436;2024-01-06T11:21:17;30.80;;;17.77;;
18983;SDS011;9626;52.552;13.436;2024-01-06T11:26:52;30.73;;;18.00;;
18983;SDS011;9626;52.552;13.436;2024-01-06T11:29:21;33.03;;;18.67;;
18983;SDS011;9626;52.552;13.436;2024-01-06T11:34:52;39.10;;;25.00;;
18983;SDS011;9626;52.552;13.436;2024-01-06T11:37:25;36.47;;;24.70;;
18983;SDS011;9626;52.552;13.436;2024-01-06T11:39:59;35.50;;;23.23;;
18983;SDS011;9626;52.552;13.436;2024-01-06T11:42:32;34.90;;;19.23;;
18983;SDS011;9626;52.552;13.436;2024-01-06T11:45:02;34.07;;;18.93;;
18983;SDS011;9626;52.552;13.436;2024-01-06T11:47:31;38.13;;;19.90;;
18983;SDS011;9626;52.552;13.436;2024-01-06T11:49:59;34.23;;;19.53;;
18983;SDS011;9626;52.552;13.436;2024-01-06T11:52:29;40.63;;;25.93;;
18983;SDS011;9626;52.552;13.436;2024-01-06T11:54:56;36.40;;;22.93;;
18983;SDS011;9626;52.552;13.436;2024-01-06T11:57:23;33.60;;;19.40;;
18983;SDS011;9626;52.552;13.436;2024-01-06T11:59:49;35.17;;;20.37;;
18983;SDS011;9626;52.552;13.436;2024-01-06T12:02:17;35.60;;;21.13;;
18983;SDS011;9626;52.552;13.436;2024-01-06T12:04:53;37.20;;;24.87;;
18983;SDS011;9626;52.552;13.436;2024-01-06T12:07:20;36.93;;;24.30;;
18983;SDS011;9626;52.552;13.436;2024-01-06T12:09:50;37.53;;;19.63;;
18983;SDS011;9626;52.552;13.436;2024-01-06T12:12:25;37.97;;;19.97;;
18983;SDS011;9626;52.552;13.436;2024-01-06T12:14:51;32.60;;;18.77;;
18983;SDS011;9626;52.552;13.436;2024-01-06T12:17:18;34.37;;;19.53;;
18983;SDS011;9626;52.552;13.436;2024-01-06T12:19:47;36.23;;;24.97;;
18983;SDS011;9626;52.552;13.436;2024-01-06T12:22:14;35.83;;;22.17;;
18983;SDS011;9626;52.552;13.436;2024-01-06T12:24:41;39.63;;;23.63;;
18983;SDS011;9626;52.552;13.436;2024-01-06T12:27:08;34.10;;;19.33;;
18983;SDS011;9626;52.552;13.436;2024-01-06T12:29:38;37.80;;;25.17;;
18983;SDS011;9626;52.552;13.436;2024-01-06T12:32:06;33.50;;;23.17;;
18983;SDS011;9626;52.552;13.436;2024-01-06T12:34:34;32.43;;;18.37;;
18983;SDS011;9626;52.552;13.436;2024-01-06T12:37:01;33.77;;;18.43;;
18983;SDS011;9626;52.552;13.436;2024-01-06T12:39:28;35.67;;;23.70;;
18983;SDS011;9626;52.552;13.436;2024-01-06T12:41:55;36.77;;;19.67;;
18983;SDS011;9626;52.552;13.436;2024-01-06T12:44:22;31.60;;;18.77;;
18983;SDS011;9626;52.552;13.436;2024-01-06T12:46:51;33.57;;;18.87;;
18983;SDS011;9626;52.552;13.436;2024-01-06T12:49:17;35.37;;;19.80;;
18983;SDS011;9626;52.552;13.436;2024-01-06T12:51:43;34.57;;;19.23;;
18983;SDS011;9626;52.552;13.436;2024-01-06T12:54:10;33.73;;;21.07;;
18983;SDS011;9626;52.552;13.436;2024-01-06T12:56:36;31.83;;;18.53;;
18983;SDS011;9626;52.552;13.436;2024-01-06T12:59:02;33.77;;;22.30;;
18983;SDS011;9626;52.552;13.436;2024-01-06T13:01:28;38.20;;;22.87;;
18983;SDS011;9626;52.552;13.436;2024-01-06T13:03:55;35.93;;;24.00;;
18983;SDS011;9626;52.552;13.436;2024-01-06T13:06:24;29.77;;;18.20;;
18983;SDS011;9626;52.552;13.436;2024-01-06T13:08:51;30.43;;;18.13;;
18983;SDS011;9626;52.552;13.436;2024-01-06T13:11:18;33.17;;;17.17;;
18983;SDS011;9626;52.552;13.436;2024-01-06T13:13:44;34.87;;;19.37;;
18983;SDS011;9626;52.552;13.436;2024-01-06T13:16:10;27.27;;;15.90;;
18983;SDS011;9626;52.552;13.436;2024-01-06T13:18:39;29.57;;;16.93;;
18983;SDS011;9626;52.552;13.436;2024-01-06T13:21:05;26.60;;;16.57;;
18983;SDS011;9626;52.552;13.436;2024-01-06T13:23:31;29.47;;;16.77;;
18983;SDS011;9626;52.552;13.436;2024-01-06T13:25:57;28.10;;;16.17;;
18983;SDS011;9626;52.552;13.436;2024-01-06T13:28:24;28.37;;;16.80;;
18983;SDS011;9626;52.552;13.436;2024-01-06T13:30:50;28.97;;;16.47;;
18983;SDS011;9626;52.552;13.436;2024-01-06T13:33:16;28.17;;;16.67;;
18983;SDS011;9626;52.552;13.436;2024-01-06T13:35:42;29.73;;;16.83;;
18983;SDS011;9626;52.552;13.436;2024-01-06T13:38:08;32.10;;;21.97;;
18983;SDS011;9626;52.552;13.436;2024-01-06T13:40:34;33.50;;;19.13;;
18983;SDS011;9626;52.552;13.436;2024-01-06T13:43:03;34.67;;;18.37;;
18983;SDS011;9626;52.552;13.436;2024-01-06T13:45:30;31.10;;;17.07;;
18983;SDS011;9626;52.552;13.436;2024-01-06T13:47:56;27.50;;;16.67;;
18983;SDS011;9626;52.552;13.436;2024-01-06T13:50:23;38.00;;;18.63;;
18983;SDS011;9626;52.552;13.436;2024-01-06T13:52:49;29.67;;;16.50;;
18983;SDS011;9626;52.552;13.436;2024-01-06T13:55:17;25.47;;;15.40;;
18983;SDS011;9626;52.552;13.436;2024-01-06T13:57:44;30.50;;;16.77;;
18983;SDS011;9626;52.552;13.436;2024-01-06T14:00:12;28.90;;;14.93;;
18983;SDS011;9626;52.552;13.436;2024-01-06T14:02:44;27.00;;;19.23;;
18983;SDS011;9626;52.552;13.436;2024-01-06T14:05:12;30.80;;;19.03;;
18983;SDS011;9626;52.552;13.436;2024-01-06T14:07:39;28.30;;;18.10;;
18983;SDS011;9626;52.552;13.436;2024-01-06T14:10:11;27.40;;;18.23;;
18983;SDS011;9626;52.552;13.436;2024-01-06T14:12:44;30.23;;;20.40;;
18983;SDS011;9626;52.552;13.436;2024-01-06T14:15:11;30.67;;;19.17;;
18983;SDS011;9626;52.552;13.436;2024-01-06T14:17:37;23.30;;;15.43;;
18983;SDS011;9626;52.552;13.436;2024-01-06T14:20:04;31.70;;;19.63;;
18983;SDS011;9626;52.552;13.436;2024-01-06T14:22:30;26.97;;;17.90;;
18983;SDS011;9626;52.552;13.436;2024-01-06T14:24:57;28.40;;;18.03;;
18983;SDS011;9626;52.552;13.436;2024-01-06T14:27:23;27.27;;;17.47;;
18983;SDS011;9626;52.552;13.436;2024-01-06T14:29:52;27.43;;;17.60;;